createdAt,value
2023-05-16T00:01:22.097Z,2.70
2023-05-16T00:03:48.967Z,3.13
2023-05-16T00:06:16.833Z,3.23
2023-05-16T00:08:43.600Z,2.30
2023-05-16T00:11:10.346Z,3.10
2023-05-16T00:13:37.516Z,2.13
2023-05-16T00:16:05.191Z,3.30
2023-05-16T00:18:31.875Z,3.20
2023-05-16T00:20:59.527Z,2.40
2023-05-16T00:23:26.233Z,2.90
2023-05-16T00:25:53.069Z,3.73
2023-05-16T00:28:19.860Z,2.97
2023-05-16T00:30:46.570Z,2.17
2023-05-16T00:33:13.222Z,2.30
2023-05-16T00:35:40.287Z,2.27
2023-05-16T00:38:07.329Z,2.33
2023-05-16T00:40:33.921Z,1.73
2023-05-16T00:43:00.603Z,1.93
2023-05-16T00:45:27.726Z,2.30
2023-05-16T00:47:54.771Z,2.33
2023-05-16T00:50:21.726Z,2.60
2023-05-16T00:52:49.493Z,2.60
2023-05-16T00:55:16.456Z,2.27
2023-05-16T00:57:43.277Z,2.13
2023-05-16T01:00:10.695Z,1.90
2023-05-16T01:02:38.469Z,2.33
2023-05-16T01:05:05.535Z,2.20
2023-05-16T01:07:32.222Z,2.20
2023-05-16T01:09:59.731Z,2.40
2023-05-16T01:12:56.823Z,1.93
2023-05-16T01:15:32.581Z,2.17
2023-05-16T01:18:23.963Z,2.10
2023-05-16T01:21:04.928Z,2.03
2023-05-16T01:23:50.417Z,2.17
2023-05-16T01:26:22.764Z,1.70
2023-05-16T01:28:51.387Z,1.90
2023-05-16T01:31:20.218Z,2.10
2023-05-16T01:33:47.593Z,2.00
2023-05-16T01:36:26.604Z,2.03
2023-05-16T01:39:09.343Z,2.27
2023-05-16T01:41:54.855Z,1.93
2023-05-16T01:44:43.325Z,2.40
2023-05-16T01:47:13.224Z,2.50
2023-05-16T01:49:47.830Z,2.43
2023-05-16T01:52:42.935Z,2.23
2023-05-16T01:55:14.923Z,2.60
2023-05-16T01:57:43.233Z,3.07
2023-05-16T02:00:10.836Z,2.73
2023-05-16T02:02:40.873Z,2.10
2023-05-16T02:05:09.191Z,2.37
2023-05-16T02:07:36.439Z,2.60
2023-05-16T02:10:04.826Z,1.90
2023-05-16T02:12:35.270Z,2.40
2023-05-16T02:15:01.901Z,2.73
2023-05-16T02:17:28.579Z,3.07
2023-05-16T02:19:55.476Z,2.77
2023-05-16T02:22:22.195Z,2.80
2023-05-16T02:24:48.790Z,2.80
2023-05-16T02:27:15.610Z,1.87
2023-05-16T02:29:42.342Z,2.00
2023-05-16T02:32:09.070Z,2.70
2023-05-16T02:34:35.659Z,2.80
2023-05-16T02:37:02.290Z,2.50
2023-05-16T02:39:29.961Z,2.17
2023-05-16T02:41:56.658Z,2.27
2023-05-16T02:44:23.326Z,2.67
2023-05-16T02:46:49.949Z,2.60
2023-05-16T02:49:16.975Z,2.80
2023-05-16T02:51:45.143Z,2.63
2023-05-16T02:54:11.816Z,3.10
2023-05-16T02:56:38.785Z,2.50
2023-05-16T02:59:05.567Z,2.43
2023-05-16T03:01:32.272Z,3.13
2023-05-16T03:03:59.617Z,2.70
2023-05-16T03:06:26.358Z,2.00
2023-05-16T03:08:52.966Z,2.27
2023-05-16T03:11:25.876Z,3.37
2023-05-16T03:13:52.473Z,2.53
2023-05-16T03:16:19.197Z,2.30
2023-05-16T03:18:45.973Z,2.13
2023-05-16T03:21:12.637Z,3.30
2023-05-16T03:23:39.240Z,3.13
2023-05-16T03:26:05.941Z,3.90
2023-05-16T03:28:32.534Z,3.20
2023-05-16T03:30:59.160Z,2.43
2023-05-16T03:33:26.273Z,3.20
2023-05-16T03:35:52.927Z,3.70
2023-05-16T03:38:19.668Z,3.47
2023-05-16T03:40:47.508Z,3.67
2023-05-16T03:43:14.247Z,3.10
2023-05-16T03:45:40.953Z,2.67
2023-05-16T03:48:09.183Z,3.37
2023-05-16T03:50:39.456Z,3.17
2023-05-16T03:53:07.628Z,3.00
2023-05-16T03:55:34.680Z,3.67
2023-05-16T03:58:01.374Z,2.40
2023-05-16T04:00:28.189Z,3.83
2023-05-16T04:02:55.187Z,2.60
2023-05-16T04:05:21.920Z,2.80
2023-05-16T04:07:48.542Z,3.53
2023-05-16T04:10:15.207Z,2.37
2023-05-16T04:12:41.784Z,3.00
2023-05-16T04:15:08.764Z,3.67
2023-05-16T04:17:35.535Z,3.10
2023-05-16T04:20:03.550Z,3.50
2023-05-16T04:22:30.652Z,4.23
2023-05-16T04:24:57.339Z,3.77
2023-05-16T04:27:23.992Z,3.50
2023-05-16T04:29:50.648Z,4.17
2023-05-16T04:32:17.406Z,3.97
2023-05-16T04:34:46.583Z,2.93
2023-05-16T04:37:13.195Z,3.80
2023-05-16T04:39:39.822Z,2.20
2023-05-16T04:42:06.933Z,3.10
2023-05-16T04:44:34.352Z,3.57
2023-05-16T04:47:01.595Z,3.60
2023-05-16T04:49:28.653Z,4.40
2023-05-16T04:51:55.283Z,3.27
2023-05-16T04:54:21.923Z,3.47
2023-05-16T04:56:48.542Z,3.67
2023-05-16T04:59:15.233Z,3.50
2023-05-16T05:01:42.024Z,3.57
2023-05-16T05:04:08.823Z,3.90
2023-05-16T05:06:35.472Z,3.60
2023-05-16T05:09:02.075Z,3.67
2023-05-16T05:11:28.927Z,2.73
2023-05-16T05:13:55.585Z,2.80
2023-05-16T05:16:22.286Z,3.40
2023-05-16T05:18:49.068Z,3.63
2023-05-16T05:21:15.770Z,3.97
2023-05-16T05:23:42.427Z,3.23
2023-05-16T05:26:09.228Z,3.90
2023-05-16T05:28:37.608Z,2.20
2023-05-16T05:31:08.139Z,2.23
2023-05-16T05:33:34.871Z,2.33
2023-05-16T05:36:03.870Z,3.07
2023-05-16T05:38:30.853Z,3.67
2023-05-16T05:40:57.546Z,2.67
2023-05-16T05:43:24.315Z,3.13
2023-05-16T05:45:51.182Z,3.67
2023-05-16T05:48:18.039Z,3.13
2023-05-16T05:50:44.706Z,3.37
2023-05-16T05:53:12.349Z,3.70
2023-05-16T05:55:41.647Z,2.73
2023-05-16T05:58:09.035Z,3.40
2023-05-16T06:00:36.043Z,2.90
2023-05-16T06:03:02.812Z,3.57
2023-05-16T06:05:29.813Z,2.63
2023-05-16T06:07:56.641Z,2.83
2023-05-16T06:10:23.450Z,2.13
2023-05-16T06:12:50.137Z,2.50
2023-05-16T06:15:16.948Z,3.23
2023-05-16T06:17:43.638Z,3.10
2023-05-16T06:20:11.240Z,2.03
2023-05-16T06:22:37.948Z,3.83
2023-05-16T06:25:04.796Z,3.17
2023-05-16T06:27:31.534Z,1.87
2023-05-16T06:29:58.358Z,2.20
2023-05-16T06:32:25.003Z,3.10
2023-05-16T06:34:51.848Z,1.87
2023-05-16T06:37:18.602Z,2.63
2023-05-16T06:39:45.337Z,2.87
2023-05-16T06:42:12.961Z,4.43
2023-05-16T06:44:39.782Z,3.33
2023-05-16T06:47:06.574Z,2.80
2023-05-16T06:49:33.953Z,4.00
2023-05-16T06:52:00.878Z,3.80
2023-05-16T06:54:27.580Z,3.50
2023-05-16T06:56:54.228Z,2.60
2023-05-16T06:59:21.034Z,3.23
2023-05-16T07:01:47.830Z,3.13
2023-05-16T07:04:15.408Z,2.67
2023-05-16T07:06:42.475Z,3.03
2023-05-16T07:09:09.430Z,2.53
2023-05-16T07:11:36.097Z,4.70
2023-05-16T07:14:02.778Z,3.00
2023-05-16T07:16:29.499Z,2.80
2023-05-16T07:18:56.439Z,2.40
2023-05-16T07:21:23.089Z,2.63
2023-05-16T07:23:49.939Z,2.40
2023-05-16T07:26:16.782Z,1.83
2023-05-16T07:28:43.494Z,2.20
2023-05-16T07:31:10.381Z,2.73
2023-05-16T07:33:37.051Z,2.00
2023-05-16T07:36:15.414Z,2.17
2023-05-16T07:38:44.153Z,2.53
2023-05-16T07:41:10.917Z,2.93
2023-05-16T07:43:37.593Z,2.20
2023-05-16T07:46:04.864Z,2.27
2023-05-16T07:48:31.624Z,2.60
2023-05-16T07:50:58.317Z,1.80
2023-05-16T07:53:25.152Z,2.37
2023-05-16T07:55:51.858Z,1.90
2023-05-16T07:58:18.570Z,2.47
2023-05-16T08:00:45.707Z,2.67
2023-05-16T08:03:12.610Z,2.10
2023-05-16T08:05:39.816Z,2.13
2023-05-16T08:08:06.706Z,2.17
2023-05-16T08:10:33.442Z,2.33
2023-05-16T08:13:00.344Z,2.27
2023-05-16T08:15:28.258Z,2.50
2023-05-16T08:17:58.645Z,2.50
2023-05-16T08:20:26.289Z,2.13
2023-05-16T08:22:53.204Z,4.27
2023-05-16T08:25:20.687Z,2.97
2023-05-16T08:27:49.830Z,2.03
2023-05-16T08:30:16.795Z,2.60
2023-05-16T08:32:43.666Z,2.63
2023-05-16T08:35:11.221Z,2.20
2023-05-16T08:37:37.963Z,1.90
2023-05-16T08:40:10.543Z,2.30
2023-05-16T08:42:38.213Z,2.23
2023-05-16T08:45:06.471Z,1.70
2023-05-16T08:47:34.516Z,2.77
2023-05-16T08:50:03.902Z,3.00
2023-05-16T08:52:33.426Z,1.70
2023-05-16T08:55:11.148Z,2.80
2023-05-16T08:57:39.502Z,1.90
2023-05-16T09:00:12.100Z,2.03
2023-05-16T09:02:43.423Z,1.87
2023-05-16T09:05:13.715Z,2.17
2023-05-16T09:07:41.696Z,2.20
2023-05-16T09:10:08.798Z,2.30
2023-05-16T09:12:36.063Z,2.37
2023-05-16T09:15:06.737Z,3.07
2023-05-16T09:17:39.871Z,2.17
2023-05-16T09:20:18.819Z,2.10
2023-05-16T09:22:54.541Z,2.47
2023-05-16T09:25:30.293Z,2.00
2023-05-16T09:28:01.683Z,2.40
2023-05-16T09:30:31.386Z,2.30
2023-05-16T09:32:59.119Z,1.83
2023-05-16T09:35:43.296Z,2.50
2023-05-16T09:38:17.069Z,2.97
2023-05-16T09:40:44.952Z,1.70
2023-05-16T09:43:16.518Z,3.00
2023-05-16T09:45:47.571Z,2.87
2023-05-16T09:48:15.432Z,3.07
2023-05-16T09:50:54.146Z,2.73
2023-05-16T09:53:27.934Z,2.60
2023-05-16T09:56:07.818Z,3.20
2023-05-16T09:58:36.162Z,2.63
2023-05-16T10:01:03.456Z,1.60
2023-05-16T10:03:30.724Z,1.83
2023-05-16T10:05:57.587Z,1.80
2023-05-16T10:08:26.514Z,2.00
2023-05-16T10:10:56.969Z,2.37
2023-05-16T10:13:28.239Z,2.30
2023-05-16T10:15:59.901Z,2.17
2023-05-16T10:18:31.739Z,1.60
2023-05-16T10:21:07.300Z,2.97
2023-05-16T10:23:36.490Z,2.53
2023-05-16T10:26:06.007Z,2.97
2023-05-16T10:28:33.099Z,3.07
2023-05-16T10:31:01.667Z,2.97
2023-05-16T10:33:29.155Z,3.70
2023-05-16T10:35:56.388Z,3.30
2023-05-16T10:38:24.686Z,2.33
2023-05-16T10:40:51.767Z,3.10
2023-05-16T10:43:27.410Z,3.37
2023-05-16T10:45:56.261Z,4.27
2023-05-16T10:48:35.250Z,2.00
2023-05-16T10:51:03.920Z,2.83
2023-05-16T10:53:34.467Z,3.03
2023-05-16T10:56:04.053Z,2.87
2023-05-16T10:58:34.954Z,2.67
2023-05-16T11:01:22.027Z,2.87
2023-05-16T11:03:58.368Z,3.00
2023-05-16T11:06:45.375Z,2.30
2023-05-16T11:09:13.325Z,3.23
2023-05-16T11:11:49.675Z,2.50
2023-05-16T11:14:23.695Z,2.37
2023-05-16T11:16:52.107Z,2.37
2023-05-16T11:19:45.060Z,2.13
2023-05-16T11:22:23.943Z,3.10
2023-05-16T11:24:58.224Z,3.10
2023-05-16T11:27:30.899Z,2.10
2023-05-16T11:30:12.844Z,2.20
2023-05-16T11:32:41.728Z,1.87
2023-05-16T11:35:14.233Z,1.93
2023-05-16T11:37:42.210Z,1.70
2023-05-16T11:40:11.418Z,1.77
2023-05-16T11:42:42.053Z,1.90
2023-05-16T11:45:17.140Z,2.00
2023-05-16T11:47:46.394Z,2.53
2023-05-16T11:50:21.934Z,1.70
2023-05-16T11:52:53.427Z,1.80
2023-05-16T11:55:36.850Z,1.93
2023-05-16T11:58:06.954Z,1.57
2023-05-16T12:00:33.621Z,2.20
2023-05-16T12:03:04.569Z,1.83
2023-05-16T12:05:32.869Z,1.80
2023-05-16T12:08:00.190Z,1.70
2023-05-16T12:10:27.211Z,1.53
2023-05-16T12:12:54.720Z,1.93
2023-05-16T12:15:21.623Z,1.57
2023-05-16T12:17:48.689Z,2.40
2023-05-16T12:20:16.510Z,2.40
2023-05-16T12:22:45.121Z,2.00
2023-05-16T12:25:32.417Z,2.03
2023-05-16T12:28:04.497Z,2.40
2023-05-16T12:30:32.891Z,1.77
2023-05-16T12:32:59.741Z,1.90
2023-05-16T12:35:32.096Z,2.03
2023-05-16T12:38:00.044Z,1.77
2023-05-16T12:40:30.705Z,2.00
2023-05-16T12:42:58.052Z,1.80
2023-05-16T12:45:27.259Z,1.80
2023-05-16T12:47:54.097Z,2.40
2023-05-16T12:50:20.873Z,1.63
2023-05-16T12:52:49.411Z,1.60
2023-05-16T12:55:17.351Z,2.50
2023-05-16T12:57:45.202Z,1.77
2023-05-16T13:00:13.495Z,2.30
2023-05-16T13:02:41.133Z,2.40
2023-05-16T13:05:08.292Z,2.47
2023-05-16T13:07:35.142Z,2.40
2023-05-16T13:10:02.308Z,2.17
2023-05-16T13:12:29.004Z,1.80
2023-05-16T13:14:55.973Z,2.40
2023-05-16T13:17:23.882Z,1.50
2023-05-16T13:19:51.496Z,1.93
2023-05-16T13:22:18.261Z,2.10
2023-05-16T13:24:45.005Z,2.00
2023-05-16T13:27:11.662Z,2.07
2023-05-16T13:29:38.307Z,2.07
2023-05-16T13:32:06.014Z,1.80
2023-05-16T13:34:33.056Z,1.43
2023-05-16T13:37:00.029Z,1.83
2023-05-16T13:39:26.778Z,1.30
2023-05-16T13:41:53.714Z,2.10
2023-05-16T13:44:21.459Z,2.07
2023-05-16T13:46:48.432Z,1.80
2023-05-16T13:49:15.145Z,2.00
2023-05-16T13:51:41.864Z,1.70
2023-05-16T13:54:08.681Z,1.50
2023-05-16T13:56:35.394Z,2.17
2023-05-16T13:59:06.413Z,1.60
2023-05-16T14:01:36.746Z,1.80
2023-05-16T14:04:04.147Z,2.13
2023-05-16T14:06:31.334Z,1.57
2023-05-16T14:08:58.025Z,1.40
2023-05-16T14:11:29.129Z,1.37
2023-05-16T14:13:57.378Z,1.63
2023-05-16T14:16:24.096Z,1.77
2023-05-16T14:18:51.258Z,1.90
2023-05-16T14:21:18.063Z,1.80
2023-05-16T14:23:44.718Z,2.27
2023-05-16T14:26:11.419Z,1.80
2023-05-16T14:28:38.071Z,1.70
2023-05-16T14:31:05.858Z,1.97
2023-05-16T14:33:33.310Z,2.23
2023-05-16T14:36:00.156Z,1.80
2023-05-16T14:38:28.025Z,2.40
2023-05-16T14:40:54.669Z,1.77
2023-05-16T14:43:21.367Z,1.90
2023-05-16T14:45:48.060Z,2.03
2023-05-16T14:48:15.180Z,1.60
2023-05-16T14:50:41.913Z,1.80
2023-05-16T14:53:08.931Z,1.63
2023-05-16T14:55:35.890Z,1.80
2023-05-16T14:58:02.622Z,1.90
2023-05-16T15:00:29.615Z,1.83
2023-05-16T15:02:56.689Z,2.13
2023-05-16T15:05:25.574Z,1.90
2023-05-16T15:07:52.327Z,1.77
2023-05-16T15:10:19.504Z,2.07
2023-05-16T15:12:46.197Z,2.40
2023-05-16T15:15:14.924Z,1.27
2023-05-16T15:17:43.221Z,1.43
2023-05-16T15:20:11.563Z,1.90
2023-05-16T15:22:41.554Z,1.53
2023-05-16T15:25:09.401Z,2.40
2023-05-16T15:27:36.127Z,2.80
2023-05-16T15:30:03.323Z,2.73
2023-05-16T15:32:30.134Z,1.70
2023-05-16T15:34:57.643Z,2.60
2023-05-16T15:37:24.350Z,1.90
2023-05-16T15:39:51.087Z,1.70
2023-05-16T15:42:19.802Z,2.63
2023-05-16T15:44:46.606Z,2.07
2023-05-16T15:47:13.410Z,2.60
2023-05-16T15:49:40.044Z,2.80
2023-05-16T15:52:06.871Z,2.07
2023-05-16T15:54:33.783Z,2.43
2023-05-16T15:57:00.707Z,2.83
2023-05-16T15:59:27.727Z,2.53
2023-05-16T16:01:54.562Z,1.57
2023-05-16T16:04:23.427Z,2.40
2023-05-16T16:06:50.511Z,2.20
2023-05-16T16:09:17.570Z,1.83
2023-05-16T16:11:44.320Z,3.17
2023-05-16T16:14:11.106Z,2.03
2023-05-16T16:16:40.350Z,2.90
2023-05-16T16:19:08.371Z,2.40
2023-05-16T16:21:36.116Z,1.87
2023-05-16T16:24:03.302Z,1.93
2023-05-16T16:26:31.598Z,2.67
2023-05-16T16:28:58.572Z,2.70
2023-05-16T16:31:25.460Z,2.50
2023-05-16T16:33:52.323Z,2.10
2023-05-16T16:36:19.830Z,2.80
2023-05-16T16:38:46.520Z,2.13
2023-05-16T16:41:14.392Z,2.47
2023-05-16T16:43:41.163Z,2.53
2023-05-16T16:46:08.401Z,2.70
2023-05-16T16:48:36.116Z,2.30
2023-05-16T16:51:03.247Z,2.30
2023-05-16T16:53:30.093Z,2.17
2023-05-16T16:55:56.836Z,2.30
2023-05-16T16:58:23.550Z,2.23
2023-05-16T17:00:50.282Z,2.73
2023-05-16T17:03:17.075Z,2.60
2023-05-16T17:05:44.978Z,2.57
2023-05-16T17:08:12.036Z,2.90
2023-05-16T17:10:39.184Z,2.47
2023-05-16T17:13:10.044Z,2.83
2023-05-16T17:15:37.633Z,3.10
2023-05-16T17:18:08.224Z,3.40
2023-05-16T17:20:36.108Z,3.67
2023-05-16T17:23:03.174Z,3.30
2023-05-16T17:25:30.373Z,3.43
2023-05-16T17:27:57.243Z,3.27
2023-05-16T17:30:23.987Z,3.30
2023-05-16T17:32:50.762Z,3.53
2023-05-16T17:35:18.135Z,2.67
2023-05-16T17:37:46.846Z,4.53
2023-05-16T17:40:16.757Z,4.80
2023-05-16T17:42:44.800Z,4.63
2023-05-16T17:45:13.834Z,4.30
2023-05-16T17:47:40.944Z,3.60
2023-05-16T17:50:10.101Z,4.03
2023-05-16T17:52:38.461Z,4.63
2023-05-16T17:55:07.122Z,4.73
2023-05-16T17:57:34.179Z,4.70
2023-05-16T18:00:01.571Z,4.60
2023-05-16T18:02:28.582Z,5.40
2023-05-16T18:04:55.761Z,4.90
2023-05-16T18:07:22.570Z,5.30
2023-05-16T18:09:49.368Z,4.50
2023-05-16T18:12:16.101Z,5.33
2023-05-16T18:14:45.312Z,5.17
2023-05-16T18:17:13.219Z,5.70
2023-05-16T18:19:40.041Z,3.20
2023-05-16T18:22:08.614Z,4.80
2023-05-16T18:24:35.410Z,3.63
2023-05-16T18:27:02.989Z,4.60
2023-05-16T18:29:30.186Z,4.90
2023-05-16T18:31:57.581Z,5.40
2023-05-16T18:34:24.322Z,5.50
2023-05-16T18:36:51.191Z,4.90
2023-05-16T18:39:18.790Z,5.37
2023-05-16T18:41:47.934Z,5.50
2023-05-16T18:44:16.969Z,5.70
2023-05-16T18:46:46.778Z,3.53
2023-05-16T18:49:14.071Z,5.63
2023-05-16T18:51:41.064Z,5.40
2023-05-16T18:54:07.835Z,6.43
2023-05-16T18:56:34.756Z,7.07
2023-05-16T18:59:01.633Z,5.67
2023-05-16T19:01:28.683Z,5.77
2023-05-16T19:03:55.751Z,5.90
2023-05-16T19:06:22.796Z,6.23
2023-05-16T19:08:49.498Z,5.90
2023-05-16T19:11:17.454Z,5.97
2023-05-16T19:13:45.111Z,5.60
2023-05-16T19:16:11.791Z,6.23
2023-05-16T19:18:38.746Z,6.40
2023-05-16T19:21:07.523Z,6.43
2023-05-16T19:23:34.201Z,5.83
2023-05-16T19:26:00.966Z,6.33
2023-05-16T19:28:27.630Z,6.43
2023-05-16T19:30:54.490Z,5.33
2023-05-16T19:33:21.734Z,6.03
2023-05-16T19:35:51.330Z,5.90
2023-05-16T19:38:19.689Z,6.00
2023-05-16T19:40:46.784Z,6.73
2023-05-16T19:43:13.569Z,6.67
2023-05-16T19:45:40.344Z,6.77
2023-05-16T19:48:07.516Z,5.90
2023-05-16T19:50:34.394Z,6.47
2023-05-16T19:53:01.302Z,5.97
2023-05-16T19:55:29.014Z,6.93
2023-05-16T19:57:56.511Z,7.23
2023-05-16T20:00:23.568Z,6.97
2023-05-16T20:02:50.364Z,7.20
2023-05-16T20:05:22.516Z,4.97
2023-05-16T20:07:49.651Z,3.97
2023-05-16T20:10:17.187Z,6.10
2023-05-16T20:12:44.769Z,6.50
2023-05-16T20:15:12.163Z,5.77
2023-05-16T20:17:40.055Z,5.70
2023-05-16T20:20:08.605Z,6.67
2023-05-16T20:22:38.613Z,6.37
2023-05-16T20:25:09.640Z,5.60
2023-05-16T20:27:36.406Z,6.57
2023-05-16T20:30:06.075Z,10.20
2023-05-16T20:32:33.313Z,6.60
2023-05-16T20:35:01.101Z,5.40
2023-05-16T20:37:27.814Z,6.50
2023-05-16T20:39:54.736Z,5.87
2023-05-16T20:42:21.909Z,6.20
2023-05-16T20:44:48.765Z,6.30
2023-05-16T20:47:16.814Z,6.37
2023-05-16T20:49:43.980Z,5.93
2023-05-16T20:52:10.764Z,6.07
2023-05-16T20:54:37.504Z,6.20
2023-05-16T20:57:04.588Z,5.60
2023-05-16T20:59:31.883Z,5.33
2023-05-16T21:01:58.529Z,5.77
2023-05-16T21:04:25.539Z,5.47
2023-05-16T21:06:52.266Z,6.50
2023-05-16T21:09:19.080Z,6.60
2023-05-16T21:11:45.778Z,6.47
2023-05-16T21:14:12.499Z,5.37
2023-05-16T21:16:39.146Z,6.13
2023-05-16T21:19:05.996Z,6.70
2023-05-16T21:21:32.866Z,5.70
2023-05-16T21:23:59.615Z,6.30
2023-05-16T21:26:26.373Z,5.90
2023-05-16T21:28:55.539Z,6.90
2023-05-16T21:31:22.935Z,6.53
2023-05-16T21:33:52.260Z,5.50
2023-05-16T21:36:20.055Z,6.83
2023-05-16T21:38:47.185Z,6.87
2023-05-16T21:41:14.461Z,5.90
2023-05-16T21:43:41.188Z,6.43
2023-05-16T21:46:07.951Z,6.80
2023-05-16T21:48:34.955Z,6.90
2023-05-16T21:51:01.994Z,6.00
2023-05-16T21:53:28.719Z,7.30
2023-05-16T21:55:55.516Z,6.83
2023-05-16T21:58:22.246Z,6.37
2023-05-16T22:00:49.483Z,6.33
2023-05-16T22:03:18.949Z,7.03
2023-05-16T22:05:48.662Z,6.77
2023-05-16T22:08:15.597Z,6.47
2023-05-16T22:10:42.699Z,6.30
2023-05-16T22:13:09.888Z,7.20
2023-05-16T22:15:36.595Z,5.80
2023-05-16T22:18:03.470Z,7.00
2023-05-16T22:20:30.325Z,6.40
2023-05-16T22:22:57.068Z,6.93
2023-05-16T22:25:23.877Z,4.37
2023-05-16T22:27:50.665Z,6.57
2023-05-16T22:30:17.453Z,6.70
2023-05-16T22:32:45.788Z,6.80
2023-05-16T22:35:13.427Z,7.13
2023-05-16T22:37:40.162Z,6.23
2023-05-16T22:40:08.734Z,6.80
2023-05-16T22:42:35.509Z,6.13
2023-05-16T22:45:02.844Z,5.53
2023-05-16T22:47:29.562Z,6.40
2023-05-16T22:49:56.384Z,6.97
2023-05-16T22:52:23.107Z,6.43
2023-05-16T22:54:49.822Z,6.80
2023-05-16T22:57:16.569Z,6.30
2023-05-16T22:59:43.228Z,6.50
2023-05-16T23:02:09.882Z,6.27
2023-05-16T23:04:36.678Z,6.47
2023-05-16T23:07:03.487Z,6.40
2023-05-16T23:09:30.352Z,5.60
2023-05-16T23:11:57.004Z,6.47
2023-05-16T23:14:23.871Z,6.47
2023-05-16T23:16:50.510Z,5.83
2023-05-16T23:19:17.208Z,5.00
2023-05-16T23:21:44.449Z,5.60
2023-05-16T23:24:11.161Z,5.17
2023-05-16T23:26:37.846Z,4.40
2023-05-16T23:29:04.535Z,5.90
2023-05-16T23:31:31.273Z,5.80
2023-05-16T23:33:58.052Z,5.23
2023-05-16T23:36:24.785Z,5.60
2023-05-16T23:38:51.476Z,5.57
2023-05-16T23:41:18.204Z,5.30
2023-05-16T23:43:44.801Z,5.70
2023-05-16T23:46:11.692Z,5.47
2023-05-16T23:48:38.606Z,5.27
2023-05-16T23:51:07.467Z,3.97
2023-05-16T23:53:34.984Z,6.00
2023-05-16T23:56:01.751Z,3.90
2023-05-16T23:58:28.486Z,5.27
